Time;durP1;ratioP1;P1;durP2;ratioP2;P2;SDS_P1;SDS_P2;PMS_P1;PMS_P2;Temp;Humidity;BMP_temperature;BMP_pressure;BME280_temperature;BME280_humidity;BME280_pressure;Samples;Min_cycle;Max_cycle;Signal;HPM_P1;HPM_P2
2022/01/28 00:00:00;;;;;;;10.97;2.70;;;6.00;99.90;;;;;;5043425;28;20221;-74
2022/01/28 00:02:46;;;;;;;16.97;2.83;;;6.00;99.90;;;;;;5050717;28;20272;-74
2022/01/28 00:05:18;;;;;;;12.87;2.67;;;6.00;99.90;;;;;;5032954;28;20295;-74
2022/01/28 00:07:44;;;;;;;14.73;3.23;;;6.00;99.90;;;;;;5092544;23;20262;-72
2022/01/28 00:10:09;;;;;;;7.40;2.77;;;6.00;99.90;;;;;;5081187;28;20186;-72
2022/01/28 00:12:43;;;;;;;14.93;3.07;;;6.00;99.90;;;;;;5081189;28;20178;-72
2022/01/28 00:15:20;;;;;;;13.27;2.83;;;6.00;99.90;;;;;;5079307;28;20713;-72
2022/01/28 00:18:16;;;;;;;12.07;2.17;;;6.00;99.90;;;;;;5090561;28;20202;-72
2022/01/28 00:21:01;;;;;;;11.90;2.60;;;6.00;99.90;;;;;;5090587;28;20284;-72
2022/01/28 00:37:59;;;;;;;11.33;2.40;;;6.00;99.90;;;;;;5083741;28;20330;-72
2022/01/28 00:39:55;;;;;;;13.93;3.00;;;6.00;99.90;;;;;;5090407;28;20169;-73
2022/01/28 00:42:20;;;;;;;10.30;2.70;;;6.00;99.90;;;;;;5091118;28;20553;-72
2022/01/28 00:44:46;;;;;;;22.47;2.70;;;6.00;99.90;;;;;;5081137;28;20236;-72
2022/01/28 00:47:11;;;;;;;12.07;3.13;;;6.00;99.90;;;;;;5093075;28;20255;-72
2022/01/28 00:49:37;;;;;;;10.97;2.13;;;6.00;99.90;;;;;;5094374;28;20580;-72
2022/01/28 00:52:03;;;;;;;16.73;4.07;;;6.00;99.90;;;;;;5092998;28;20180;-72
2022/01/28 00:54:28;;;;;;;9.83;2.83;;;6.00;99.90;;;;;;5095216;28;20538;-72
2022/01/28 00:56:54;;;;;;;13.93;3.60;;;5.90;99.90;;;;;;5094283;28;20579;-72
2022/01/28 00:59:19;;;;;;;12.67;2.40;;;5.90;99.90;;;;;;5094502;28;20213;-72
2022/01/28 01:01:45;;;;;;;16.00;3.33;;;5.90;99.90;;;;;;5092926;28;20286;-72
2022/01/28 01:04:11;;;;;;;11.83;3.33;;;5.90;99.90;;;;;;5093420;28;20227;-72
2022/01/28 01:06:37;;;;;;;8.43;2.20;;;5.90;99.90;;;;;;5094331;28;20233;-72
2022/01/28 01:09:02;;;;;;;18.23;3.30;;;5.90;99.90;;;;;;5094362;28;20239;-72
2022/01/28 01:11:28;;;;;;;13.80;3.13;;;5.90;99.90;;;;;;5092513;28;20210;-72
2022/01/28 01:13:54;;;;;;;10.53;2.50;;;5.90;99.90;;;;;;5094395;28;20690;-72
2022/01/28 01:16:33;;;;;;;10.07;2.80;;;5.90;99.90;;;;;;5094365;28;20971;-72
2022/01/28 01:21:39;;;;;;;17.53;3.00;;;5.90;99.90;;;;;;5088180;28;20296;-72
2022/01/28 01:24:07;;;;;;;12.10;3.00;;;5.90;99.90;;;;;;5094244;28;20251;-72
2022/01/28 01:26:36;;;;;;;17.40;3.13;;;5.90;99.90;;;;;;5093644;28;20226;-72
2022/01/28 01:29:06;;;;;;;14.70;3.30;;;5.80;99.90;;;;;;5093786;28;20206;-72
2022/01/28 01:31:31;;;;;;;21.00;3.73;;;5.80;99.90;;;;;;5092387;28;20293;-72
2022/01/28 01:34:11;;;;;;;10.67;2.60;;;5.80;99.90;;;;;;5092950;28;20280;-72
2022/01/28 01:36:37;;;;;;;16.07;2.70;;;5.80;99.90;;;;;;5092857;28;20254;-72
2022/01/28 01:39:04;;;;;;;11.17;2.77;;;5.80;99.90;;;;;;5092301;28;20709;-72
2022/01/28 01:41:37;;;;;;;8.53;2.50;;;5.80;99.90;;;;;;5093590;28;20205;-72
2022/01/28 01:44:08;;;;;;;10.53;2.57;;;5.80;99.90;;;;;;5093942;28;20202;-72
2022/01/28 01:52:04;;;;;;;11.63;3.57;;;5.80;99.90;;;;;;5081385;28;20671;-72
2022/01/28 01:54:43;;;;;;;16.47;3.30;;;5.80;99.90;;;;;;5093958;28;20179;-72
2022/01/28 01:57:11;;;;;;;15.83;3.13;;;5.80;99.90;;;;;;5093078;28;20714;-72
2022/01/28 01:59:38;;;;;;;15.57;3.23;;;5.80;99.90;;;;;;5092523;28;20202;-72
2022/01/28 02:02:05;;;;;;;13.13;3.30;;;5.80;99.90;;;;;;5091893;28;20213;-72
2022/01/28 02:04:31;;;;;;;11.30;2.77;;;5.70;99.90;;;;;;5093385;28;20693;-72
2022/01/28 02:06:56;;;;;;;18.23;3.17;;;5.70;99.90;;;;;;5091416;28;20206;-72
2022/01/28 02:09:22;;;;;;;17.37;3.80;;;5.70;99.90;;;;;;5093378;28;20602;-72
2022/01/28 02:11:48;;;;;;;10.50;3.50;;;5.70;99.90;;;;;;5091786;28;20202;-72
2022/01/28 02:14:13;;;;;;;13.43;3.47;;;5.70;99.90;;;;;;5091918;28;20742;-72
2022/01/28 02:16:39;;;;;;;15.50;2.83;;;5.70;99.90;;;;;;5091530;28;20719;-72
2022/01/28 02:19:04;;;;;;;19.80;3.30;;;5.70;99.90;;;;;;5092997;28;20182;-72
2022/01/28 02:21:35;;;;;;;14.40;3.00;;;5.80;99.90;;;;;;5086722;28;20683;-72
2022/01/28 02:24:03;;;;;;;12.47;3.00;;;5.80;99.90;;;;;;5093261;28;20298;-72
2022/01/28 02:26:30;;;;;;;13.93;3.40;;;5.80;99.90;;;;;;5091285;28;20222;-72
2022/01/28 02:28:57;;;;;;;13.03;2.90;;;5.80;99.90;;;;;;5092748;28;20222;-72
2022/01/28 02:31:26;;;;;;;14.53;2.47;;;5.80;99.90;;;;;;5092574;28;20209;-73
2022/01/28 02:33:55;;;;;;;15.03;3.07;;;5.80;99.90;;;;;;5092262;28;20175;-72
2022/01/28 02:36:21;;;;;;;17.83;2.73;;;5.70;99.90;;;;;;5092689;28;20210;-72
2022/01/28 02:38:47;;;;;;;13.43;3.20;;;5.70;99.90;;;;;;5092514;28;20209;-72
2022/01/28 02:41:12;;;;;;;14.20;3.50;;;5.70;99.90;;;;;;5091242;28;20198;-72
2022/01/28 02:43:43;;;;;;;20.23;3.23;;;5.70;99.90;;;;;;5092654;28;20549;-73
2022/01/28 02:46:15;;;;;;;14.87;2.77;;;5.70;99.90;;;;;;5092232;28;20186;-73
2022/01/28 02:48:52;;;;;;;19.87;3.40;;;5.70;99.90;;;;;;5091421;28;20189;-72
2022/01/28 02:51:20;;;;;;;16.37;4.40;;;5.70;99.90;;;;;;5086392;28;20214;-72
2022/01/28 02:53:51;;;;;;;14.53;3.57;;;5.60;99.90;;;;;;5104854;28;20219;-72
2022/01/28 02:56:34;;;;;;;12.37;3.20;;;5.60;99.90;;;;;;5088190;28;20229;-72
2022/01/28 02:59:00;;;;;;;17.77;3.70;;;5.60;99.90;;;;;;5084408;28;20750;-72
2022/01/28 03:01:26;;;;;;;20.57;3.27;;;5.70;99.90;;;;;;5091908;28;20352;-72
2022/01/28 03:03:55;;;;;;;15.47;3.70;;;5.60;99.90;;;;;;5092864;28;20182;-72
2022/01/28 03:06:20;;;;;;;13.57;3.20;;;5.60;99.90;;;;;;5091926;28;20224;-72
2022/01/28 03:08:59;;;;;;;29.10;4.13;;;5.60;99.90;;;;;;5083472;28;20277;-72
2022/01/28 03:17:00;;;;;;;14.27;2.80;;;5.70;99.90;;;;;;5091703;28;20233;-72
2022/01/28 03:19:29;;;;;;;18.90;3.90;;;5.70;99.90;;;;;;5090341;28;20211;-72
2022/01/28 03:21:57;;;;;;;16.10;3.53;;;5.60;99.90;;;;;;5085422;28;20171;-72
2022/01/28 03:24:24;;;;;;;11.00;2.67;;;5.60;99.90;;;;;;5092408;28;20170;-72
2022/01/28 03:26:53;;;;;;;15.10;3.30;;;5.70;99.90;;;;;;5091472;28;20218;-72
2022/01/28 03:29:18;;;;;;;16.90;3.43;;;5.70;99.90;;;;;;5097526;28;20215;-72
2022/01/28 03:31:44;;;;;;;14.47;3.63;;;5.60;99.90;;;;;;5083344;28;20217;-72
2022/01/28 03:34:09;;;;;;;19.47;3.97;;;5.70;99.90;;;;;;5090863;28;20244;-73
2022/01/28 03:36:35;;;;;;;14.63;3.63;;;5.70;99.90;;;;;;5090370;28;20558;-70
2022/01/28 03:39:02;;;;;;;15.70;3.50;;;5.70;99.90;;;;;;5091047;28;20199;-70
2022/01/28 03:41:28;;;;;;;14.53;3.33;;;5.70;99.90;;;;;;5089765;28;20265;-71
2022/01/28 03:43:58;;;;;;;13.93;3.73;;;5.80;99.90;;;;;;5091536;28;20226;-71
2022/01/28 03:46:25;;;;;;;15.07;3.17;;;5.80;99.90;;;;;;5089352;28;20664;-71
2022/01/28 03:48:52;;;;;;;13.60;3.13;;;5.80;99.90;;;;;;5092161;28;20171;-71
2022/01/28 03:51:17;;;;;;;14.20;3.37;;;5.70;99.90;;;;;;5090958;28;20241;-71
2022/01/28 03:53:43;;;;;;;22.77;4.10;;;5.80;99.90;;;;;;5090984;28;20249;-71
2022/01/28 03:56:08;;;;;;;18.23;3.50;;;5.80;99.90;;;;;;5090976;28;20202;-70
2022/01/28 03:58:34;;;;;;;14.10;2.80;;;5.80;99.90;;;;;;5090885;28;20217;-71
2022/01/28 04:00:59;;;;;;;17.07;2.93;;;5.80;99.90;;;;;;5090184;28;20760;-71
2022/01/28 04:11:27;;;;;;;17.20;3.63;;;5.80;99.90;;;;;;5084950;28;20316;-71
2022/01/28 04:13:55;;;;;;;15.30;3.03;;;5.80;99.90;;;;;;5091304;28;20210;-72
2022/01/28 04:19:07;;;;;;;17.60;2.93;;;5.80;99.90;;;;;;5090835;28;20181;-72
2022/01/28 04:21:32;;;;;;;17.00;3.33;;;5.80;99.90;;;;;;5090311;28;20197;-71
2022/01/28 04:23:58;;;;;;;22.47;3.57;;;5.80;99.90;;;;;;5091012;28;20687;-71
2022/01/28 04:26:23;;;;;;;16.07;3.53;;;5.80;99.90;;;;;;5090363;28;20265;-71
2022/01/28 04:28:48;;;;;;;13.90;3.80;;;5.80;99.90;;;;;;5089159;28;20268;-71
2022/01/28 04:31:14;;;;;;;17.27;3.23;;;5.80;99.90;;;;;;5087740;28;20206;-71
2022/01/28 04:33:40;;;;;;;16.57;2.90;;;5.80;99.90;;;;;;5090251;28;20186;-71
2022/01/28 04:36:08;;;;;;;14.20;2.87;;;5.80;99.90;;;;;;5089339;28;20225;-71
2022/01/28 04:38:51;;;;;;;22.67;3.53;;;5.80;99.90;;;;;;5089041;28;20728;-71
2022/01/28 04:41:25;;;;;;;15.70;3.17;;;5.80;99.90;;;;;;5089181;28;20279;-71
2022/01/28 04:44:02;;;;;;;18.10;3.40;;;5.80;99.90;;;;;;5083309;28;20198;-71
2022/01/28 04:49:12;;;;;;;18.27;3.63;;;5.80;99.90;;;;;;5091032;28;20178;-71
2022/01/28 04:59:35;;;;;;;19.90;3.63;;;5.90;99.90;;;;;;5090280;28;20206;-71
2022/01/28 05:05:09;;;;;;;10.57;2.70;;;5.90;99.90;;;;;;5074551;28;20206;-72
2022/01/28 05:07:56;;;;;;;12.13;3.13;;;5.90;99.90;;;;;;5089748;28;20224;-71
2022/01/28 05:13:23;;;;;;;18.63;3.27;;;5.90;99.90;;;;;;5090755;28;20247;-71
2022/01/28 05:16:18;;;;;;;18.90;4.10;;;5.90;99.90;;;;;;5090130;28;20674;-71
2022/01/28 05:24:21;;;;;;;14.93;3.20;;;5.90;99.90;;;;;;5084713;28;20225;-71
2022/01/28 05:26:56;;;;;;;17.30;3.20;;;5.90;99.90;;;;;;5080451;28;20686;-71
2022/01/28 05:29:22;;;;;;;11.27;2.90;;;6.00;99.90;;;;;;5089879;28;20213;-71
2022/01/28 05:31:48;;;;;;;17.97;2.97;;;5.90;99.90;;;;;;5084273;28;20675;-71
2022/01/28 05:34:14;;;;;;;13.23;2.60;;;5.90;99.90;;;;;;5095608;28;20233;-72
2022/01/28 05:36:40;;;;;;;19.27;3.60;;;5.90;99.90;;;;;;5096119;28;20265;-71
2022/01/28 05:39:05;;;;;;;16.17;3.33;;;5.90;99.90;;;;;;5095825;28;20230;-71
2022/01/28 05:41:31;;;;;;;18.17;3.33;;;5.90;99.90;;;;;;5096006;28;20210;-71
2022/01/28 05:43:56;;;;;;;14.57;2.67;;;5.90;99.90;;;;;;5094368;28;20616;-72
2022/01/28 05:46:22;;;;;;;14.50;3.43;;;5.90;99.90;;;;;;5095449;28;20226;-72
2022/01/28 05:48:48;;;;;;;12.60;3.23;;;5.90;99.90;;;;;;5089094;28;20186;-72
2022/01/28 05:51:13;;;;;;;14.67;3.47;;;5.90;99.90;;;;;;5093623;28;20222;-72
2022/01/28 05:53:39;;;;;;;19.00;3.03;;;5.90;99.90;;;;;;5093673;28;20249;-71
2022/01/28 05:56:04;;;;;;;14.03;3.63;;;5.90;99.90;;;;;;5092471;28;20218;-72
2022/01/28 05:58:30;;;;;;;16.13;3.77;;;5.90;99.90;;;;;;5091571;28;20297;-71
2022/01/28 06:00:55;;;;;;;14.30;3.07;;;5.90;99.90;;;;;;5092170;28;20184;-72
2022/01/28 06:03:21;;;;;;;14.80;3.33;;;5.90;99.90;;;;;;5093778;28;20200;-72
2022/01/28 06:05:48;;;;;;;18.90;4.27;;;5.80;99.90;;;;;;5093297;28;20293;-71
2022/01/28 06:08:14;;;;;;;20.13;3.20;;;5.90;99.90;;;;;;5080543;23;20235;-73
2022/01/28 06:10:39;;;;;;;14.40;2.93;;;5.80;99.90;;;;;;5054147;28;20230;-73
2022/01/28 06:13:05;;;;;;;15.30;3.53;;;5.90;99.90;;;;;;5064390;28;20214;-73
2022/01/28 06:15:31;;;;;;;18.40;3.10;;;5.80;99.90;;;;;;5055171;28;20270;-74
2022/01/28 06:17:57;;;;;;;13.97;3.17;;;5.80;99.90;;;;;;5050879;28;20210;-74
2022/01/28 06:20:22;;;;;;;20.30;3.63;;;5.80;99.90;;;;;;5072593;28;20579;-74
2022/01/28 06:22:48;;;;;;;21.70;3.30;;;5.80;99.90;;;;;;5072595;28;20242;-74
2022/01/28 06:25:15;;;;;;;18.37;3.23;;;5.80;99.90;;;;;;5072663;28;20237;-74
2022/01/28 06:27:41;;;;;;;14.90;3.50;;;5.80;99.90;;;;;;5072467;28;20207;-74
2022/01/28 06:30:08;;;;;;;24.43;3.57;;;5.80;99.90;;;;;;5072451;28;20221;-74
2022/01/28 06:32:34;;;;;;;13.37;3.47;;;5.80;99.90;;;;;;5072088;28;20257;-74
2022/01/28 06:35:00;;;;;;;15.37;3.33;;;5.80;99.90;;;;;;5055756;28;20210;-74
2022/01/28 06:37:27;;;;;;;14.17;2.83;;;5.80;99.90;;;;;;5055289;28;20222;-75
2022/01/28 06:39:53;;;;;;;11.87;3.40;;;5.80;99.90;;;;;;5073094;28;20171;-74
2022/01/28 06:42:18;;;;;;;24.50;4.00;;;5.80;99.90;;;;;;5072170;28;20214;-75
2022/01/28 06:44:44;;;;;;;11.73;2.97;;;5.80;99.90;;;;;;5053785;28;20215;-73
2022/01/28 06:47:12;;;;;;;16.83;3.27;;;5.80;99.90;;;;;;5069932;28;20711;-73
2022/01/28 06:49:38;;;;;;;15.63;3.00;;;5.80;99.90;;;;;;5070749;28;20687;-73
2022/01/28 06:52:05;;;;;;;16.53;3.57;;;5.80;99.90;;;;;;5071913;28;20203;-73
2022/01/28 06:54:31;;;;;;;15.03;3.40;;;5.80;99.90;;;;;;5072327;28;20190;-74
2022/01/28 06:56:56;;;;;;;14.63;2.77;;;5.80;99.90;;;;;;5071794;28;20211;-73
2022/01/28 06:59:22;;;;;;;18.60;4.47;;;5.80;99.90;;;;;;5071452;28;20238;-74
2022/01/28 07:01:48;;;;;;;18.40;4.10;;;5.80;99.90;;;;;;5071452;28;20211;-74
2022/01/28 07:04:14;;;;;;;13.57;2.97;;;5.80;99.90;;;;;;5054001;28;20215;-73
2022/01/28 07:06:39;;;;;;;20.47;3.37;;;5.80;99.90;;;;;;5071673;28;20536;-74
2022/01/28 07:09:07;;;;;;;20.50;4.50;;;5.80;99.90;;;;;;5053645;28;20254;-72
2022/01/28 07:11:32;;;;;;;14.60;3.17;;;5.80;99.90;;;;;;5053390;28;20302;-74
2022/01/28 07:13:58;;;;;;;17.67;4.53;;;5.80;99.90;;;;;;5053729;28;20299;-72
2022/01/28 07:16:23;;;;;;;14.47;3.83;;;5.80;99.90;;;;;;5071375;28;20245;-73
2022/01/28 07:18:49;;;;;;;20.23;3.77;;;5.70;99.90;;;;;;5068070;28;20203;-74
2022/01/28 07:21:14;;;;;;;22.60;4.00;;;5.70;99.90;;;;;;5053686;28;20649;-75
2022/01/28 07:23:40;;;;;;;19.67;3.77;;;5.70;99.90;;;;;;5053456;28;20412;-73
2022/01/28 07:26:05;;;;;;;14.80;3.40;;;5.70;99.90;;;;;;5071247;28;20226;-74
2022/01/28 07:28:31;;;;;;;14.67;2.77;;;5.80;99.90;;;;;;5070627;28;20222;-73
2022/01/28 07:30:57;;;;;;;19.30;3.77;;;5.80;99.90;;;;;;5071370;28;20196;-73
2022/01/28 07:33:23;;;;;;;21.50;5.00;;;5.70;99.90;;;;;;5071431;28;20179;-74
2022/01/28 07:35:48;;;;;;;19.63;4.07;;;5.70;99.90;;;;;;5071139;28;20574;-74
2022/01/28 07:38:14;;;;;;;20.70;3.10;;;5.70;99.90;;;;;;5052447;28;20234;-74
2022/01/28 07:40:39;;;;;;;17.60;4.70;;;5.70;99.90;;;;;;5070635;28;20233;-74
2022/01/28 07:43:05;;;;;;;19.60;4.13;;;5.70;99.90;;;;;;5052970;28;20206;-75
2022/01/28 07:45:30;;;;;;;17.27;3.10;;;5.70;99.90;;;;;;5053400;28;20199;-75
2022/01/28 07:47:56;;;;;;;17.37;3.70;;;5.70;99.90;;;;;;5049058;28;20282;-74
2022/01/28 07:50:22;;;;;;;15.30;3.40;;;5.80;99.90;;;;;;5070611;28;20260;-74
2022/01/28 07:52:47;;;;;;;17.27;3.73;;;5.70;99.90;;;;;;5070832;28;20206;-74
2022/01/28 07:55:14;;;;;;;20.83;4.07;;;5.60;99.90;;;;;;5071034;28;20739;-74
2022/01/28 07:57:41;;;;;;;22.87;4.47;;;5.70;99.90;;;;;;5070405;28;20199;-74
2022/01/28 08:00:09;;;;;;;20.47;4.17;;;5.90;99.90;;;;;;5071011;28;20211;-75
2022/01/28 08:02:35;;;;;;;18.10;4.10;;;6.40;99.90;;;;;;5050930;28;20214;-77
2022/01/28 08:05:01;;;;;;;29.57;5.07;;;6.70;99.90;;;;;;5019600;28;20215;-78
2022/01/28 08:07:27;;;;;;;18.63;3.90;;;6.70;99.90;;;;;;5032334;28;20250;-77
2022/01/28 08:09:53;;;;;;;20.13;4.20;;;6.90;99.90;;;;;;5044423;28;20542;-77
2022/01/28 08:12:18;;;;;;;15.50;4.13;;;7.20;99.90;;;;;;5055404;28;20199;-78
2022/01/28 08:14:43;;;;;;;25.20;4.17;;;7.50;99.90;;;;;;5052596;28;20246;-77
2022/01/28 08:17:11;;;;;;;24.40;4.67;;;7.70;99.90;;;;;;5042164;28;20206;-77
2022/01/28 08:19:37;;;;;;;18.40;3.60;;;8.00;99.90;;;;;;5051514;28;20202;-77
2022/01/28 08:22:02;;;;;;;22.07;4.50;;;8.30;99.90;;;;;;5044342;28;20675;-77
2022/01/28 08:24:28;;;;;;;21.63;3.97;;;8.30;99.90;;;;;;5044673;28;20233;-77
2022/01/28 08:26:53;;;;;;;19.07;4.00;;;8.20;99.90;;;;;;5070303;28;20214;-78
2022/01/28 08:29:19;;;;;;;21.97;4.07;;;7.90;99.90;;;;;;5070686;28;20217;-77
2022/01/28 08:31:44;;;;;;;22.30;4.20;;;7.60;99.90;;;;;;5049174;28;20217;-77
2022/01/28 08:34:10;;;;;;;15.90;3.93;;;7.50;99.90;;;;;;5058301;28;20185;-78
2022/01/28 08:36:35;;;;;;;16.13;3.67;;;7.50;99.90;;;;;;5042357;28;20186;-76
2022/01/28 08:39:04;;;;;;;16.97;4.97;;;7.20;99.90;;;;;;5058776;28;20203;-77
2022/01/28 08:41:32;;;;;;;12.27;4.10;;;7.10;99.90;;;;;;5033916;28;20234;-77
2022/01/28 08:43:57;;;;;;;21.47;3.97;;;7.10;99.90;;;;;;5052764;28;20230;-77
2022/01/28 08:46:23;;;;;;;22.50;5.10;;;7.00;99.90;;;;;;5053898;28;20314;-78
2022/01/28 08:48:48;;;;;;;17.53;3.43;;;7.20;99.90;;;;;;5049545;28;20198;-77
2022/01/28 08:51:14;;;;;;;11.50;3.83;;;7.50;99.90;;;;;;5063157;28;20641;-77
2022/01/28 08:53:40;;;;;;;18.03;4.03;;;7.30;99.90;;;;;;5061382;28;20219;-78
2022/01/28 08:56:05;;;;;;;18.70;4.10;;;7.50;99.90;;;;;;5070537;28;20702;-77
2022/01/28 08:58:31;;;;;;;19.20;3.70;;;7.20;99.90;;;;;;5044012;28;20218;-77
2022/01/28 09:00:56;;;;;;;18.20;4.00;;;7.40;99.90;;;;;;5043952;28;20725;-77
2022/01/28 09:03:22;;;;;;;19.77;4.10;;;7.40;99.90;;;;;;5038955;28;20209;-79
2022/01/28 09:05:48;;;;;;;14.97;4.57;;;7.50;99.90;;;;;;5044149;28;20217;-78
2022/01/28 09:08:14;;;;;;;19.63;4.10;;;7.40;99.90;;;;;;5065068;28;20223;-77
2022/01/28 09:10:45;;;;;;;16.03;4.00;;;7.30;99.90;;;;;;5068312;28;20209;-78
2022/01/28 09:13:26;;;;;;;21.27;3.87;;;7.50;99.90;;;;;;5058184;28;20172;-77
2022/01/28 09:15:54;;;;;;;16.57;4.37;;;7.60;99.90;;;;;;5042349;28;20182;-78
2022/01/28 09:18:21;;;;;;;19.37;4.60;;;7.50;99.90;;;;;;5070918;28;20219;-77
2022/01/28 09:20:47;;;;;;;19.10;4.23;;;7.50;99.90;;;;;;5041329;28;20212;-77
2022/01/28 09:23:13;;;;;;;19.47;5.17;;;7.60;99.90;;;;;;5041756;28;20234;-77
2022/01/28 09:25:39;;;;;;;22.00;4.23;;;7.40;99.90;;;;;;5080230;28;20260;-78
2022/01/28 09:28:04;;;;;;;23.53;7.30;;;7.40;99.90;;;;;;5063275;28;20204;-77
2022/01/28 09:30:30;;;;;;;19.87;5.70;;;7.30;99.90;;;;;;5060340;28;20571;-77
2022/01/28 09:32:57;;;;;;;10.80;4.63;;;7.30;99.90;;;;;;5075422;28;20274;-77
2022/01/28 09:35:23;;;;;;;18.73;4.30;;;7.40;99.90;;;;;;5081055;28;20207;-76
2022/01/28 09:37:50;;;;;;;19.00;3.23;;;7.30;99.90;;;;;;5077541;28;20207;-77
2022/01/28 09:40:16;;;;;;;14.67;3.63;;;7.40;99.90;;;;;;5060309;28;20206;-78
2022/01/28 09:42:45;;;;;;;21.47;5.03;;;7.50;99.90;;;;;;5047125;28;20175;-77
2022/01/28 09:45:13;;;;;;;20.93;4.37;;;7.60;99.90;;;;;;5054845;28;20207;-77
2022/01/28 09:47:39;;;;;;;15.23;3.90;;;7.70;99.90;;;;;;5060773;28;20214;-76
2022/01/28 09:50:06;;;;;;;25.90;4.83;;;7.60;99.90;;;;;;5042729;28;20295;-77
2022/01/28 09:52:32;;;;;;;20.80;4.07;;;7.70;99.90;;;;;;5049171;28;20215;-77
2022/01/28 09:54:58;;;;;;;16.10;4.47;;;7.70;99.90;;;;;;5067959;28;20652;-76
2022/01/28 09:57:23;;;;;;;18.00;4.90;;;8.00;99.90;;;;;;5073135;28;20252;-77
2022/01/28 09:59:49;;;;;;;18.83;4.63;;;7.80;99.90;;;;;;5047493;28;20198;-78
2022/01/28 10:02:15;;;;;;;17.50;4.07;;;7.70;99.90;;;;;;5073040;28;20211;-78
2022/01/28 10:04:41;;;;;;;26.00;4.23;;;8.00;99.90;;;;;;5044722;28;20303;-78
2022/01/28 10:07:14;;;;;;;17.10;3.87;;;7.90;99.90;;;;;;5067414;28;20215;-78
2022/01/28 10:09:57;;;;;;;16.73;4.10;;;7.80;99.90;;;;;;5055235;28;20179;-77
2022/01/28 10:12:40;;;;;;;23.90;4.03;;;7.70;99.90;;;;;;5064666;28;20574;-78
2022/01/28 10:15:17;;;;;;;16.40;4.30;;;7.80;99.90;;;;;;5055889;28;20226;-78
2022/01/28 10:17:54;;;;;;;16.37;3.50;;;8.00;99.90;;;;;;5069180;28;20282;-75
2022/01/28 10:20:21;;;;;;;14.77;4.33;;;8.00;99.90;;;;;;5054162;28;20577;-77
2022/01/28 10:22:58;;;;;;;12.90;3.60;;;8.00;99.90;;;;;;5072712;28;20691;-78
2022/01/28 10:25:26;;;;;;;18.67;4.47;;;7.90;99.90;;;;;;5054668;28;20215;-77
2022/01/28 10:28:03;;;;;;;14.57;3.87;;;7.80;99.90;;;;;;5065038;28;20249;-77
2022/01/28 10:30:30;;;;;;;21.33;4.93;;;7.80;99.90;;;;;;5073095;28;20246;-78
2022/01/28 10:33:11;;;;;;;15.97;3.90;;;7.80;99.90;;;;;;5064292;28;20199;-78
2022/01/28 10:35:38;;;;;;;22.67;4.53;;;7.80;99.90;;;;;;5072486;28;20211;-78
2022/01/28 10:38:07;;;;;;;25.33;4.07;;;7.80;99.90;;;;;;5072126;28;20277;-78
2022/01/28 10:40:33;;;;;;;12.73;4.20;;;7.90;99.90;;;;;;5044853;28;20213;-77
2022/01/28 10:42:58;;;;;;;21.20;3.73;;;8.10;99.90;;;;;;5043588;28;20172;-77
2022/01/28 10:45:29;;;;;;;22.97;7.30;;;8.10;99.90;;;;;;5077584;28;20225;-76
2022/01/28 10:47:56;;;;;;;16.00;4.33;;;7.90;99.90;;;;;;5044548;28;20221;-77
2022/01/28 10:50:29;;;;;;;15.70;3.90;;;7.60;99.90;;;;;;5065900;28;20198;-77
2022/01/28 10:53:03;;;;;;;20.13;4.70;;;7.50;99.90;;;;;;5049312;28;20210;-76
2022/01/28 10:55:31;;;;;;;24.20;6.77;;;7.40;99.90;;;;;;5035713;28;20199;-76
2022/01/28 10:57:58;;;;;;;17.17;6.00;;;7.20;99.90;;;;;;5053816;28;20211;-78
2022/01/28 11:00:30;;;;;;;23.53;5.57;;;7.30;99.90;;;;;;5072596;28;20209;-77
2022/01/28 11:02:58;;;;;;;14.60;3.90;;;7.40;99.90;;;;;;5071949;28;20199;-77
2022/01/28 11:05:25;;;;;;;13.03;4.40;;;7.60;99.90;;;;;;5045744;28;20219;-77
2022/01/28 11:07:51;;;;;;;15.37;3.90;;;7.90;99.90;;;;;;5054817;28;20621;-77
2022/01/28 11:10:16;;;;;;;15.67;4.13;;;7.80;99.90;;;;;;5038504;28;20672;-77
2022/01/28 11:12:42;;;;;;;14.70;3.53;;;7.90;99.90;;;;;;5045425;28;20177;-77
2022/01/28 11:15:08;;;;;;;16.73;4.13;;;7.90;99.90;;;;;;5071993;28;20214;-78
2022/01/28 11:17:36;;;;;;;21.67;4.47;;;8.00;99.90;;;;;;5049959;28;20234;-77
2022/01/28 11:20:03;;;;;;;17.80;3.60;;;8.00;99.90;;;;;;5045932;28;20683;-78
2022/01/28 11:22:43;;;;;;;13.87;3.27;;;7.90;99.90;;;;;;5071441;28;20695;-77
2022/01/28 11:25:42;;;;;;;14.90;3.23;;;7.90;99.90;;;;;;5054160;28;20228;-78
2022/01/28 11:28:13;;;;;;;17.43;4.10;;;8.00;99.90;;;;;;5070928;28;20203;-77
2022/01/28 11:30:49;;;;;;;18.27;3.63;;;8.10;99.90;;;;;;5072043;28;20171;-77
2022/01/28 11:33:16;;;;;;;19.63;4.00;;;8.40;99.90;;;;;;5071390;28;20293;-77
2022/01/28 11:35:53;;;;;;;13.83;3.47;;;8.60;99.90;;;;;;5071358;28;20297;-77
2022/01/28 11:38:25;;;;;;;14.37;5.13;;;8.50;99.90;;;;;;5072159;28;20214;-78
2022/01/28 11:41:12;;;;;;;18.53;4.10;;;8.40;99.90;;;;;;5054325;28;20206;-79
2022/01/28 11:43:50;;;;;;;14.10;4.77;;;8.20;99.90;;;;;;5053766;28;20721;-78
2022/01/28 11:46:28;;;;;;;14.53;3.20;;;8.00;99.90;;;;;;5071237;28;20219;-77
2022/01/28 11:49:19;;;;;;;16.70;4.00;;;7.90;99.90;;;;;;5059893;28;20248;-78
2022/01/28 11:51:45;;;;;;;13.93;3.70;;;7.80;99.90;;;;;;5071839;28;20848;-76
2022/01/28 11:54:14;;;;;;;17.57;7.00;;;7.80;99.90;;;;;;5071439;28;20319;-77
2022/01/28 11:57:01;;;;;;;13.80;3.33;;;7.80;99.90;;;;;;5071082;28;20737;-78
2022/01/28 11:59:28;;;;;;;14.27;3.80;;;7.90;99.90;;;;;;5044976;28;20301;-78
2022/01/28 12:01:54;;;;;;;15.57;4.33;;;7.90;99.90;;;;;;5053710;28;20295;-77
2022/01/28 12:04:25;;;;;;;14.17;3.80;;;7.90;99.90;;;;;;5071483;28;20298;-77
2022/01/28 12:06:55;;;;;;;16.00;3.40;;;7.90;99.90;;;;;;5053643;28;20582;-78
2022/01/28 12:09:22;;;;;;;16.13;3.80;;;7.90;99.90;;;;;;5099604;23;20234;-81
2022/01/28 12:11:48;;;;;;;11.17;3.70;;;7.80;99.90;;;;;;5073448;28;20216;-77
2022/01/28 12:14:14;;;;;;;13.37;3.27;;;7.80;99.90;;;;;;5082403;28;20673;-76
2022/01/28 12:16:43;;;;;;;14.23;3.07;;;8.00;99.90;;;;;;5082159;28;20207;-76
2022/01/28 12:19:19;;;;;;;12.90;2.57;;;8.10;99.90;;;;;;5090596;28;20198;-77
2022/01/28 12:22:10;;;;;;;13.63;3.03;;;8.40;99.90;;;;;;5090187;28;20206;-77
2022/01/28 12:24:37;;;;;;;11.43;3.20;;;8.40;99.90;;;;;;5091661;28;20281;-77
2022/01/28 12:27:07;;;;;;;9.47;3.67;;;8.50;99.90;;;;;;5090804;28;20370;-77
2022/01/28 12:29:42;;;;;;;15.83;4.57;;;8.50;99.90;;;;;;5090430;28;20213;-77
2022/01/28 12:32:08;;;;;;;16.27;5.25;;;8.60;99.90;;;;;;5090709;28;20462;-77
2022/01/28 12:34:33;;;;;;;16.40;4.00;;;8.50;99.90;;;;;;5090675;28;20318;-77
2022/01/28 12:37:02;;;;;;;13.63;3.70;;;8.40;99.90;;;;;;5090803;28;20537;-77
2022/01/28 12:39:33;;;;;;;14.33;3.70;;;8.30;99.90;;;;;;5090825;28;20221;-77
2022/01/28 12:42:07;;;;;;;9.10;3.27;;;8.30;99.90;;;;;;5089658;28;20255;-76
2022/01/28 12:44:34;;;;;;;15.60;4.47;;;8.20;99.90;;;;;;5095154;28;20213;-75
2022/01/28 12:47:04;;;;;;;12.80;3.37;;;8.10;99.90;;;;;;5092545;28;20218;-76
2022/01/28 12:49:32;;;;;;;11.70;3.27;;;8.10;99.90;;;;;;5088817;28;20206;-76
2022/01/28 12:52:01;;;;;;;17.20;3.67;;;7.90;99.90;;;;;;5094410;28;20262;-76
2022/01/28 12:54:46;;;;;;;10.90;4.33;;;7.70;99.90;;;;;;5095005;28;20703;-76
2022/01/28 12:57:21;;;;;;;8.07;3.20;;;7.80;99.90;;;;;;5094513;28;20205;-75
2022/01/28 12:59:48;;;;;;;11.20;2.47;;;7.80;99.90;;;;;;5094501;28;20232;-76
2022/01/28 13:02:15;;;;;;;10.07;3.37;;;7.80;99.90;;;;;;5094358;28;20228;-77
2022/01/28 13:05:13;;;;;;;6.90;2.47;;;7.70;99.90;;;;;;5094597;28;20217;-76
2022/01/28 13:10:29;;;;;;;13.40;3.27;;;7.70;99.90;;;;;;5094422;28;20639;-77
2022/01/28 13:13:09;;;;;;;17.03;6.00;;;7.50;99.90;;;;;;5094466;28;20170;-75
2022/01/28 13:15:35;;;;;;;12.43;3.10;;;7.50;99.90;;;;;;5093724;28;20178;-75
2022/01/28 13:18:03;;;;;;;14.20;3.67;;;7.50;99.90;;;;;;5087044;28;20693;-76
2022/01/28 13:20:40;;;;;;;8.23;2.50;;;7.40;99.90;;;;;;5094882;28;20217;-77
2022/01/28 13:23:07;;;;;;;12.60;2.47;;;7.40;99.90;;;;;;5092501;28;20629;-77
2022/01/28 13:25:33;;;;;;;13.83;2.97;;;7.40;99.90;;;;;;5092749;28;20217;-75
2022/01/28 13:28:02;;;;;;;11.47;2.63;;;7.40;99.90;;;;;;5092064;28;20194;-77
2022/01/28 13:30:34;;;;;;;11.77;3.23;;;7.30;99.90;;;;;;5093201;28;20194;-77
2022/01/28 13:33:05;;;;;;;13.60;3.27;;;7.30;99.90;;;;;;5093834;28;20581;-77
2022/01/28 13:35:33;;;;;;;9.60;2.70;;;7.30;99.90;;;;;;5093769;28;20241;-76
2022/01/28 13:38:05;;;;;;;13.17;3.63;;;7.30;99.90;;;;;;5093367;28;20721;-79
2022/01/28 13:40:33;;;;;;;14.83;3.37;;;7.40;99.90;;;;;;5092783;28;20210;-77
2022/01/28 13:43:20;;;;;;;11.20;2.83;;;7.30;99.90;;;;;;5092415;28;20228;-78
2022/01/28 13:45:54;;;;;;;11.17;3.07;;;7.30;99.90;;;;;;5094261;28;20194;-76
2022/01/28 13:48:32;;;;;;;7.60;2.40;;;7.30;99.90;;;;;;5086741;28;20260;-77
2022/01/28 13:51:04;;;;;;;11.30;3.33;;;7.30;99.90;;;;;;5092329;28;20694;-77
2022/01/28 13:56:04;;;;;;;10.00;3.23;;;7.20;99.90;;;;;;5093156;28;20297;-76
2022/01/28 13:58:44;;;;;;;9.73;2.17;;;7.30;99.90;;;;;;5091504;28;20210;-77
2022/01/28 14:01:10;;;;;;;8.83;3.63;;;7.30;99.90;;;;;;5092122;28;20178;-76